Nearby METAR Reports

 

EGNT - Newcastle, United Kingdom
Distance from station: NNE 1mi, 2km
Updated: 23/04/2019 11:20
Clear
Clear
 Wind from ESE
Wind: ESE 12 mph , 19 km/h
Temperature: 11°C
Dew Point: 8°C
Humidity: 82%
Barometer: 1002 hPa
Summary: Clear
Visibility: greater than 7 miles , 10 km
2019/04/23 10:20 EGNT 231020Z 11010KT 070V150 CAVOK 11/08 Q1002
EGQM - Boulmer, United Kingdom
Distance from station: N 29mi, 47km
Updated: 23/04/2019 10:50
Clear
Clear
 Wind from ESE
Wind: ESE 9 mph , 15 km/h
Temperature: 11°C
Dew Point: 8°C
Humidity: 82%
Barometer: 1003 hPa
Clouds: Clear
Visibility: 6 miles , 10 km
2019/04/23 09:50 EGQM 230950Z AUTO 11008KT 9999 NCD 11/08 Q1003
 
EGOM - Spadeadam, United Kingdom
Distance from station: W 34mi, 54km
Updated: 23/04/2019 10:50
Clear
Clear
 Wind from ENE
Wind: ENE 16 mph , 26 km/h
Temperature: 11°C
Dew Point: 7°C
Humidity: 77%
Barometer: 1001 hPa
Clouds: Clear
Visibility: 6 miles , 10 km
2019/04/23 09:50 EGOM 230950Z AUTO 07014KT 9999 // NCD 11/07 Q1001
EGNV - Tees-Side, United Kingdom
Distance from station: SSE 35mi, 57km
Updated: 23/04/2019 11:20
Partly cloudy
Partly cloudy
 Wind from varies
Wind: varies 2 mph , 4 km/h
Temperature: 14°C
Dew Point: 7°C
Humidity: 63%
Barometer: 1002 hPa
Clouds: Partly cloudy
Visibility: 5 miles , 8 km
2019/04/23 10:20 EGNV 231020Z VRB02KT 8000 NSC 14/07 Q1002
 
EGNC - Carlisle, United Kingdom
Distance from station: W 45mi, 72km
Updated: 12/10/2018 14:50
NOT Current
Light rain, Showers, Overcast
Light rain, Showers, Overcast
 Wind from S
Wind: S 21 mph , 33 km/h, Gust: 38 mph , 61 km/h
Temperature: 16°C
Dew Point: 14°C
Humidity: 88%
Barometer: 992 hPa
Summary: Light rain, Showers
Clouds: Overcast
Visibility: 3 miles , 5 km
Cloud details: Partly cloudy 305 m
Overcast 488 m
2018/10/12 13:50 EGNC 121350Z 18018G33KT 140V220 5000 -SHRA SCT010 OVC016 16/14 Q0992
EGXE - Leeming Raf, United Kingdom
Distance from station: S 50mi, 81km
Updated: 23/04/2019 10:50
Clear
Clear
 Wind from N
Wind: N 2 mph , 4 km/h
Temperature: 13°C
Dew Point: 8°C
Humidity: 72%
Barometer: 1002 hPa
Summary: Clear
Visibility: greater than 7 miles , 10 km
2019/04/23 09:50 EGXE 230950Z 35002KT CAVOK 13/08 Q1002 BLU NOSIG
 
EGXZ - Topcliffe Raf, United Kingdom
Distance from station: SSE 57mi, 91km
Updated: 23/04/2019 10:50
Clear
Clear
 Wind from E
Wind: E 12 mph , 19 km/h
Temperature: 13°C
Dew Point: 8°C
Humidity: 72%
Barometer: 1002 hPa
Summary: Clear
Visibility: greater than 7 miles , 10 km
2019/04/23 09:50 EGXZ 230950Z 10010KT CAVOK 13/08 Q1002 BLU
EGXU - Linton-On-Ouse R, United Kingdom
Distance from station: SSE 68mi, 110km
Updated: 23/04/2019 10:50
Clear
Clear
 Wind from E
Wind: E 8 mph , 13 km/h
Temperature: 14°C
Dew Point: 8°C
Humidity: 67%
Barometer: 1001 hPa
Summary: Clear
Visibility: greater than 7 miles , 10 km
2019/04/23 09:50 EGXU 230950Z 09007KT CAVOK 14/08 Q1001 BLU NOSIG
 
EGNM - Leeds And Bradfo, United Kingdom
Distance from station: S 78mi, 126km
Updated: 23/04/2019 11:20
Clear
Clear
 Wind from ENE
Wind: ENE 9 mph , 15 km/h
Temperature: 12°C
Dew Point: 7°C
Humidity: 72%
Barometer: 1001 hPa
Summary: Clear
Visibility: greater than 7 miles , 10 km
2019/04/23 10:20 EGNM 231020Z 07008KT 010V160 CAVOK 12/07 Q1001
EGPH - Edinburgh Airpor, United Kingdom
Distance from station: NW 92mi, 148km
Updated: 23/04/2019 11:20
Clear
Clear
 Wind from NE
Wind: NE 14 mph , 22 km/h
Temperature: 11°C
Dew Point: 9°C
Humidity: 88%
Barometer: 1002 hPa
Summary: Clear
Visibility: greater than 7 miles , 10 km
2019/04/23 10:20 EGPH 231020Z 05012KT CAVOK 11/09 Q1002
 
EGXV - Leconfield (aut), United Kingdom
Distance from station: SE 93mi, 150km
Updated: 23/04/2019 10:50
Clear
Clear
 Wind from E
Wind: E 10 mph , 17 km/h
Temperature: 12°C
Dew Point: 7°C
Humidity: 72%
Barometer: 1001 hPa
Clouds: Clear
Visibility: 6 miles , 10 km
2019/04/23 09:50 EGXV 230950Z AUTO 10009KT 9999 NCD 12/07 Q1001
EGNO - Wharton, United Kingdom
Distance from station: SSW 99mi, 159km
Updated: 23/04/2019 11:20
Clear
Clear
 Wind from E
Wind: E 15 mph , 24 km/h
Temperature: 16°C
Dew Point: 10°C
Humidity: 68%
Barometer: 998 hPa
Summary: Clear
Visibility: greater than 7 miles , 10 km
2019/04/23 10:20 EGNO 231020Z 08013KT CAVOK 16/10 Q0998
 
EGNH - Blackpool Airpor, United Kingdom
Distance from station: SSW 100mi, 161km
Updated: 23/04/2019 11:20
Partly cloudy
Partly cloudy
 Wind from E
Wind: E 17 mph , 28 km/h
Temperature: 17°C
Dew Point: 9°C
Humidity: 59%
Barometer: 998 hPa
Clouds: Partly cloudy
Visibility: 6 miles , 9 km
2019/04/23 10:20 EGNH 231020Z 08015KT 9000 NSC 17/09 Q0998